Time;durP1;ratioP1;P1;durP2;ratioP2;P2;SDS_P1;SDS_P2;PMS_P1;PMS_P2;Temp;Humidity;BMP_temperature;BMP_pressure;BME280_temperature;BME280_humidity;BME280_pressure;Samples;Min_cycle;Max_cycle;Signal;HPM_P1;HPM_P2
2023/11/18 00:00:58;;;;;;;;;;;;;;;10.72;nan;102088.28;5039772;28;19959;-88
2023/11/18 00:03:23;;;;;;;;;;;;;;;10.73;nan;102089.09;5043203;28;20329;-87
2023/11/18 00:05:49;;;;;;;;;;;;;;;10.72;nan;102096.31;5041067;28;19917;-88
2023/11/18 00:08:14;;;;;;;;;;;;;;;10.74;nan;102090.75;5044634;28;20377;-88
2023/11/18 00:10:39;;;;;;;;;;;;;;;10.71;nan;102096.56;5043345;28;21503;-87
2023/11/18 00:13:04;;;;;;;;;;;;;;;10.71;nan;102097.38;5043308;28;20015;-87
2023/11/18 00:15:30;;;;;;;;;;;;;;;10.72;nan;102101.69;5040243;28;19925;-87
2023/11/18 00:17:55;;;;;;;;;;;;;;;10.74;nan;102104.16;5040507;28;19920;-88
2023/11/18 00:20:23;;;;;;;;;;;;;;;10.73;nan;102111.38;5028921;28;19963;-87
2023/11/18 00:22:51;;;;;;;;;;;;;;;10.68;nan;102132.66;5040505;28;19977;-88
2023/11/18 00:25:16;;;;;;;;;;;;;;;10.67;nan;102132.88;5042798;28;19932;-88
2023/11/18 00:27:43;;;;;;;;;;;;;;;10.63;nan;102137.03;5038997;28;19917;-89
2023/11/18 00:30:10;;;;;;;;;;;;;;;10.56;nan;102132.50;5041601;28;20409;-88
2023/11/18 00:32:36;;;;;;;;;;;;;;;10.52;nan;102130.47;5044323;28;19995;-87
2023/11/18 00:35:05;;;;;;;;;;;;;;;10.51;nan;102137.69;5041591;28;21827;-88
2023/11/18 00:37:31;;;;;;;;;;;;;;;10.51;nan;102144.91;5043222;28;20389;-87
2023/11/18 00:39:57;;;;;;;;;;;;;;;10.49;nan;102147.81;5041129;28;19921;-88
2023/11/18 00:42:22;;;;;;;;;;;;;;;10.42;nan;102149.69;5043119;28;19980;-88
2023/11/18 00:44:47;;;;;;;;;;;;;;;10.42;nan;102149.69;5039416;28;19971;-87
2023/11/18 00:47:13;;;;;;;;;;;;;;;10.46;nan;102153.59;5042263;28;19917;-87
2023/11/18 00:49:38;;;;;;;;;;;;;;;10.46;nan;102163.50;5041859;28;19927;-88
2023/11/18 00:52:04;;;;;;;;;;;;;;;10.41;nan;102166.81;5048952;28;19916;-87
2023/11/18 00:54:30;;;;;;;;;;;;;;;10.42;nan;102173.81;5045062;28;19923;-87
2023/11/18 00:56:55;;;;;;;;;;;;;;;10.44;nan;102174.41;5059296;28;19961;-88
2023/11/18 00:59:20;;;;;;;;;;;;;;;10.43;nan;102171.97;5050091;28;19968;-88
2023/11/18 01:01:46;;;;;;;;;;;;;;;10.48;nan;102177.50;5046559;28;19916;-88
2023/11/18 01:04:11;;;;;;;;;;;;;;;10.50;nan;102186.13;5031124;28;19956;-88
2023/11/18 01:06:36;;;;;;;;;;;;;;;10.47;nan;102190.06;5049150;28;21670;-88
2023/11/18 01:09:02;;;;;;;;;;;;;;;10.47;nan;102181.22;5050745;28;20324;-88
2023/11/18 01:11:27;;;;;;;;;;;;;;;10.43;nan;102186.19;5032035;28;19941;-88
2023/11/18 01:13:54;;;;;;;;;;;;;;;10.46;nan;102190.28;5045122;28;19928;-88
2023/11/18 01:16:19;;;;;;;;;;;;;;;10.50;nan;102195.00;5042335;28;19916;-88
2023/11/18 01:18:45;;;;;;;;;;;;;;;10.56;nan;102196.81;5047120;28;19928;-88
2023/11/18 01:21:11;;;;;;;;;;;;;;;10.56;nan;102196.81;5041715;28;19924;-88
2023/11/18 01:23:37;;;;;;;;;;;;;;;10.62;nan;102194.34;5044721;28;20016;-88
2023/11/18 01:26:04;;;;;;;;;;;;;;;10.62;nan;102205.88;5044412;28;19917;-88
2023/11/18 01:28:31;;;;;;;;;;;;;;;10.57;nan;102193.09;5044804;28;19917;-87
2023/11/18 01:30:56;;;;;;;;;;;;;;;10.62;nan;102205.06;5045437;28;19932;-88
2023/11/18 01:33:23;;;;;;;;;;;;;;;10.67;nan;102202.56;5045873;28;19917;-88
2023/11/18 01:35:49;;;;;;;;;;;;;;;10.65;nan;102193.91;5044767;28;20035;-88
2023/11/18 01:38:14;;;;;;;;;;;;;;;10.68;nan;102199.66;5046440;28;20043;-88
2023/11/18 01:40:40;;;;;;;;;;;;;;;10.71;nan;102207.28;5046597;28;20645;-88
2023/11/18 01:43:11;;;;;;;;;;;;;;;10.71;nan;102201.91;5044927;28;19947;-87
2023/11/18 01:45:36;;;;;;;;;;;;;;;10.73;nan;102209.75;5027278;28;19916;-88
2023/11/18 01:48:02;;;;;;;;;;;;;;;10.74;nan;102197.97;5047909;28;20490;-88
2023/11/18 01:50:28;;;;;;;;;;;;;;;10.79;nan;102198.19;5047922;28;19939;-86
2023/11/18 01:52:53;;;;;;;;;;;;;;;10.83;nan;102204.75;5045395;28;19963;-88
2023/11/18 01:55:18;;;;;;;;;;;;;;;10.86;nan;102212.38;5044712;28;19916;-88
2023/11/18 01:57:45;;;;;;;;;;;;;;;10.86;nan;102207.00;5043801;28;19920;-87
2023/11/18 02:00:11;;;;;;;;;;;;;;;10.87;nan;102209.47;5047438;28;20377;-87
2023/11/18 02:02:37;;;;;;;;;;;;;;;10.90;nan;102214.41;5047792;28;20555;-87
2023/11/18 02:05:05;;;;;;;;;;;;;;;10.92;nan;102221.41;5045782;28;19917;-87
2023/11/18 02:07:33;;;;;;;;;;;;;;;10.93;nan;102226.56;5046577;28;19916;-88
2023/11/18 02:09:58;;;;;;;;;;;;;;;10.96;nan;102228.84;5044631;28;19917;-87
2023/11/18 02:12:34;;;;;;;;;;;;;;;11.00;nan;102232.72;5041874;28;19917;-87
2023/11/18 02:15:00;;;;;;;;;;;;;;;11.02;nan;102233.31;5045107;28;19921;-87
2023/11/18 02:17:27;;;;;;;;;;;;;;;10.99;nan;102233.75;5043658;28;19953;-88
2023/11/18 02:19:53;;;;;;;;;;;;;;;11.01;nan;102236.22;5042654;28;19923;-87
2023/11/18 02:22:19;;;;;;;;;;;;;;;11.02;nan;102235.19;5046233;28;19920;-87
2023/11/18 02:24:44;;;;;;;;;;;;;;;10.98;nan;102234.78;5048431;28;20408;-88
2023/11/18 02:27:13;;;;;;;;;;;;;;;10.94;nan;102238.91;5046596;28;19917;-88
2023/11/18 02:29:43;;;;;;;;;;;;;;;10.96;nan;102244.91;5043027;28;19952;-88
2023/11/18 02:32:15;;;;;;;;;;;;;;;11.00;nan;102248.00;5047189;28;19927;-87
2023/11/18 02:34:44;;;;;;;;;;;;;;;10.99;nan;102246.34;5045579;28;19917;-88
2023/11/18 02:37:10;;;;;;;;;;;;;;;10.95;nan;102254.00;5039453;28;19925;-89
2023/11/18 02:39:47;;;;;;;;;;;;;;;10.97;nan;102251.09;5047458;28;19925;-88
2023/11/18 02:42:13;;;;;;;;;;;;;;;10.99;nan;102259.75;5044060;28;19932;-89
2023/11/18 02:44:39;;;;;;;;;;;;;;;11.01;nan;102247.78;5045035;28;20000;-88
2023/11/18 02:47:07;;;;;;;;;;;;;;;11.02;nan;102254.78;5043297;28;21701;-88
2023/11/18 02:49:36;;;;;;;;;;;;;;;11.02;nan;102260.16;5047185;28;20012;-87
2023/11/18 02:52:02;;;;;;;;;;;;;;;11.02;nan;102259.31;5041661;28;19924;-87
2023/11/18 02:54:28;;;;;;;;;;;;;;;11.03;nan;102263.66;5045616;28;19917;-88
2023/11/18 02:56:53;;;;;;;;;;;;;;;11.03;nan;102267.16;5043474;28;20410;-88
2023/11/18 02:59:18;;;;;;;;;;;;;;;11.01;nan;102269.22;5047231;28;19931;-88
2023/11/18 03:01:44;;;;;;;;;;;;;;;10.89;nan;102277.13;5043565;28;20278;-87
2023/11/18 03:04:10;;;;;;;;;;;;;;;10.86;nan;102268.69;5043892;28;19921;-88
2023/11/18 03:06:35;;;;;;;;;;;;;;;10.84;nan;102270.75;5047247;28;20019;-88
2023/11/18 03:09:01;;;;;;;;;;;;;;;10.83;nan;102277.16;5040815;28;19928;-88
2023/11/18 03:11:29;;;;;;;;;;;;;;;10.86;nan;102285.59;5042665;28;19948;-88
2023/11/18 03:13:56;;;;;;;;;;;;;;;10.93;nan;102274.81;5040920;28;20019;-88
2023/11/18 03:16:21;;;;;;;;;;;;;;;10.97;nan;102283.28;5040802;28;19952;-88
2023/11/18 03:18:48;;;;;;;;;;;;;;;11.04;nan;102282.22;5043550;28;20553;-88
2023/11/18 03:21:13;;;;;;;;;;;;;;;11.08;nan;102286.09;5045684;28;19966;-88
2023/11/18 03:23:40;;;;;;;;;;;;;;;11.10;nan;102291.25;5047640;28;19920;-87
2023/11/18 03:26:06;;;;;;;;;;;;;;;11.09;nan;102290.44;5047757;28;19917;-88
2023/11/18 03:28:31;;;;;;;;;;;;;;;11.12;nan;102287.31;5048483;28;19924;-88
2023/11/18 03:30:57;;;;;;;;;;;;;;;11.16;nan;102293.91;5043624;28;19916;-87
2023/11/18 03:33:22;;;;;;;;;;;;;;;11.14;nan;102292.50;5048525;28;19940;-88
2023/11/18 03:35:48;;;;;;;;;;;;;;;11.17;nan;102290.19;5044751;28;19932;-88
2023/11/18 03:38:13;;;;;;;;;;;;;;;11.16;nan;102285.06;5042809;28;20292;-87
2023/11/18 03:40:40;;;;;;;;;;;;;;;11.14;nan;102279.91;5041964;28;19979;-88
2023/11/18 03:43:05;;;;;;;;;;;;;;;11.16;nan;102285.06;5046072;28;19928;-88
2023/11/18 03:45:30;;;;;;;;;;;;;;;11.14;nan;102282.59;5045745;28;19916;-88
2023/11/18 03:47:56;;;;;;;;;;;;;;;11.12;nan;102281.94;5043427;28;20092;-88
2023/11/18 03:50:21;;;;;;;;;;;;;;;11.15;nan;102286.91;5047161;28;19917;-87
2023/11/18 03:52:46;;;;;;;;;;;;;;;11.20;nan;102289.75;5041847;28;19916;-88
2023/11/18 03:55:12;;;;;;;;;;;;;;;11.20;nan;102291.63;5043528;28;19924;-87
2023/11/18 03:57:37;;;;;;;;;;;;;;;11.20;nan;102295.13;5043727;28;19917;-88
2023/11/18 04:00:03;;;;;;;;;;;;;;;11.24;nan;102297.38;5043693;28;19971;-87
2023/11/18 04:02:28;;;;;;;;;;;;;;;11.24;nan;102297.38;5046795;28;19921;-88
2023/11/18 04:04:54;;;;;;;;;;;;;;;11.25;nan;102299.03;5044844;28;19920;-88
2023/11/18 04:07:19;;;;;;;;;;;;;;;11.30;nan;102293.81;5047180;28;20024;-87
2023/11/18 04:09:44;;;;;;;;;;;;;;;11.33;nan;102296.94;5044392;28;21741;-87
2023/11/18 04:12:10;;;;;;;;;;;;;;;11.40;nan;102297.69;5040220;28;20435;-88
2023/11/18 04:14:36;;;;;;;;;;;;;;;11.46;nan;102304.88;5030778;28;20954;-88
2023/11/18 04:17:01;;;;;;;;;;;;;;;11.50;nan;102298.06;5042815;28;19925;-88
2023/11/18 04:19:27;;;;;;;;;;;;;;;11.54;nan;102300.31;5045795;28;19917;-87
2023/11/18 04:21:52;;;;;;;;;;;;;;;11.51;nan;102293.50;5039983;28;19916;-88
2023/11/18 04:24:17;;;;;;;;;;;;;;;11.49;nan;102292.91;5043593;28;20300;-87
2023/11/18 04:26:43;;;;;;;;;;;;;;;11.44;nan;102296.22;5047069;28;19962;-88
2023/11/18 04:29:08;;;;;;;;;;;;;;;11.42;nan;102287.56;5046600;28;19924;-88
2023/11/18 04:31:37;;;;;;;;;;;;;;;11.43;nan;102296.44;5039942;28;19921;-88
2023/11/18 04:34:04;;;;;;;;;;;;;;;11.42;nan;102301.00;5045110;28;19964;-88
2023/11/18 04:36:31;;;;;;;;;;;;;;;11.40;nan;102299.56;5046565;28;19924;-88
2023/11/18 04:38:56;;;;;;;;;;;;;;;11.41;nan;102311.94;5031206;28;19932;-89
2023/11/18 04:41:23;;;;;;;;;;;;;;;11.41;nan;102301.22;5047568;28;19917;-88
2023/11/18 04:43:48;;;;;;;;;;;;;;;11.38;nan;102301.63;5048672;28;19921;-88
2023/11/18 04:46:13;;;;;;;;;;;;;;;11.36;nan;102307.22;5048068;28;19924;-88
2023/11/18 04:48:39;;;;;;;;;;;;;;;11.36;nan;102293.00;5048454;28;19975;-88
2023/11/18 04:51:05;;;;;;;;;;;;;;;11.32;nan;102305.19;5046526;28;20481;-88
2023/11/18 04:53:31;;;;;;;;;;;;;;;11.31;nan;102308.88;5045848;28;19923;-88
2023/11/18 04:55:58;;;;;;;;;;;;;;;11.30;nan;102304.56;5042734;28;19917;-89
2023/11/18 04:58:23;;;;;;;;;;;;;;;11.32;nan;102313.25;5042430;28;20413;-88
2023/11/18 05:00:49;;;;;;;;;;;;;;;11.29;nan;102305.59;5046237;28;19923;-88
2023/11/18 05:03:15;;;;;;;;;;;;;;;11.24;nan;102311.63;5047421;28;19925;-88
2023/11/18 05:05:40;;;;;;;;;;;;;;;11.22;nan;102308.31;5046777;28;19916;-88
2023/11/18 05:08:06;;;;;;;;;;;;;;;11.19;nan;102301.53;5048012;28;20395;-88
2023/11/18 05:10:32;;;;;;;;;;;;;;;11.14;nan;102313.94;5047436;28;19917;-88
2023/11/18 05:12:57;;;;;;;;;;;;;;;11.11;nan;102303.63;5051388;28;20009;-88
2023/11/18 05:15:25;;;;;;;;;;;;;;;11.10;nan;102307.34;5033909;28;19928;-88
2023/11/18 05:17:54;;;;;;;;;;;;;;;11.05;nan;102310.69;5046073;28;19916;-88
2023/11/18 05:20:19;;;;;;;;;;;;;;;11.02;nan;102307.59;5047216;28;19917;-88
2023/11/18 05:22:44;;;;;;;;;;;;;;;10.96;nan;102309.28;5047710;28;20327;-88
2023/11/18 05:25:10;;;;;;;;;;;;;;;10.95;nan;102312.16;5045540;28;19975;-87
2023/11/18 05:27:35;;;;;;;;;;;;;;;10.96;nan;102306.59;5048147;28;19920;-87
2023/11/18 05:30:01;;;;;;;;;;;;;;;10.95;nan;102309.47;5034459;28;19971;-87
2023/11/18 05:32:27;;;;;;;;;;;;;;;10.98;nan;102307.22;5051607;28;20313;-87
2023/11/18 05:34:53;;;;;;;;;;;;;;;11.01;nan;102312.13;5041930;28;19917;-88
2023/11/18 05:37:19;;;;;;;;;;;;;;;11.05;nan;102308.00;5045429;28;20023;-88
2023/11/18 05:39:45;;;;;;;;;;;;;;;11.07;nan;102313.13;5045770;28;20337;-88
2023/11/18 05:42:11;;;;;;;;;;;;;;;11.08;nan;102312.94;5041153;28;19929;-88
2023/11/18 05:44:39;;;;;;;;;;;;;;;11.06;nan;102315.00;5044144;28;19916;-87
2023/11/18 05:47:04;;;;;;;;;;;;;;;11.05;nan;102315.22;5046274;28;19917;-88
2023/11/18 05:49:29;;;;;;;;;;;;;;;11.04;nan;102314.41;5045174;28;19944;-88
2023/11/18 05:51:56;;;;;;;;;;;;;;;11.02;nan;102319.16;5046695;28;20067;-87
2023/11/18 05:54:21;;;;;;;;;;;;;;;11.02;nan;102321.00;5047736;28;19917;-86
2023/11/18 05:56:46;;;;;;;;;;;;;;;10.99;nan;102311.53;5043423;28;19917;-88
2023/11/18 05:59:13;;;;;;;;;;;;;;;10.97;nan;102313.59;5047167;28;19928;-88
2023/11/18 06:01:39;;;;;;;;;;;;;;;10.95;nan;102318.38;5035548;28;20504;-88
2023/11/18 06:04:04;;;;;;;;;;;;;;;10.94;nan;102310.50;5040948;28;20035;-87
2023/11/18 06:06:31;;;;;;;;;;;;;;;10.93;nan;102317.72;5042430;28;20016;-88
2023/11/18 06:08:59;;;;;;;;;;;;;;;10.90;nan;102327.03;5047218;28;21607;-87
2023/11/18 06:11:24;;;;;;;;;;;;;;;10.90;nan;102320.84;5046727;28;19924;-88
2023/11/18 06:13:50;;;;;;;;;;;;;;;10.89;nan;102320.00;5040801;28;19980;-88
2023/11/18 06:16:22;;;;;;;;;;;;;;;10.87;nan;102316.72;5046884;28;19925;-86
2023/11/18 06:18:48;;;;;;;;;;;;;;;10.85;nan;102321.47;5031231;28;19927;-87
2023/11/18 06:21:18;;;;;;;;;;;;;;;10.84;nan;102332.41;5044109;28;19917;-88
2023/11/18 06:23:44;;;;;;;;;;;;;;;10.81;nan;102327.47;5044831;28;19920;-87
2023/11/18 06:26:10;;;;;;;;;;;;;;;10.79;nan;102335.75;5044060;28;19960;-87
2023/11/18 06:28:36;;;;;;;;;;;;;;;10.75;nan;102333.66;5046691;28;19979;-87
2023/11/18 06:31:01;;;;;;;;;;;;;;;10.73;nan;102341.09;5025896;28;19928;-88
2023/11/18 06:33:27;;;;;;;;;;;;;;;10.72;nan;102334.91;5046541;28;20316;-87
2023/11/18 06:35:54;;;;;;;;;;;;;;;10.73;nan;102336.56;5029355;28;19919;-87
2023/11/18 06:38:19;;;;;;;;;;;;;;;10.75;nan;102347.91;5047923;28;19917;-87
2023/11/18 06:40:46;;;;;;;;;;;;;;;10.78;nan;102355.53;5046441;28;19920;-87
2023/11/18 06:43:11;;;;;;;;;;;;;;;10.82;nan;102355.94;5045699;28;19921;-88
2023/11/18 06:45:37;;;;;;;;;;;;;;;10.87;nan;102362.31;5031031;28;20510;-88
2023/11/18 06:48:06;;;;;;;;;;;;;;;10.90;nan;102364.56;5041934;28;20396;-88
2023/11/18 06:50:31;;;;;;;;;;;;;;;10.94;nan;102370.31;5045491;28;19916;-88
2023/11/18 06:52:57;;;;;;;;;;;;;;;10.94;nan;102362.28;5043502;28;20051;-88
2023/11/18 06:55:22;;;;;;;;;;;;;;;10.92;nan;102361.66;5030869;28;19917;-87
2023/11/18 06:57:48;;;;;;;;;;;;;;;10.90;nan;102369.09;5052987;28;19948;-88
2023/11/18 07:00:15;;;;;;;;;;;;;;;10.91;nan;102365.38;5047558;28;19917;-87
2023/11/18 07:02:40;;;;;;;;;;;;;;;10.90;nan;102361.88;5040694;28;19925;-87
2023/11/18 07:05:05;;;;;;;;;;;;;;;10.90;nan;102361.06;5045199;28;20375;-87
2023/11/18 07:07:32;;;;;;;;;;;;;;;10.86;nan;102365.19;5042896;28;19917;-88
2023/11/18 07:09:57;;;;;;;;;;;;;;;10.86;nan;102362.53;5041696;28;19925;-89
2023/11/18 07:12:22;;;;;;;;;;;;;;;10.89;nan;102364.78;5043540;28;19967;-87
2023/11/18 07:14:48;;;;;;;;;;;;;;;10.93;nan;102367.84;5041266;28;19944;-88
2023/11/18 07:17:13;;;;;;;;;;;;;;;10.96;nan;102373.66;5044490;28;19917;-90
2023/11/18 07:19:39;;;;;;;;;;;;;;;11.01;nan;102373.00;5041787;28;19923;-88
2023/11/18 07:22:06;;;;;;;;;;;;;;;11.07;nan;102386.38;5026608;28;19943;-87
2023/11/18 07:24:32;;;;;;;;;;;;;;;11.13;nan;102387.38;5044631;28;19921;-88
2023/11/18 07:26:59;;;;;;;;;;;;;;;11.19;nan;102391.94;5043472;28;19921;-88
2023/11/18 07:29:25;;;;;;;;;;;;;;;11.25;nan;102395.63;5044620;28;20058;-88
2023/11/18 07:31:50;;;;;;;;;;;;;;;11.31;nan;102402.81;5049331;28;20007;-88
2023/11/18 07:34:15;;;;;;;;;;;;;;;11.35;nan;102409.41;5044684;28;21468;-86
2023/11/18 07:36:41;;;;;;;;;;;;;;;11.36;nan;102406.53;5040566;28;19921;-88
2023/11/18 07:39:15;;;;;;;;;;;;;;;11.38;nan;102420.53;5040527;28;19923;-88
2023/11/18 07:41:41;;;;;;;;;;;;;;;11.40;nan;102423.84;5044380;28;20039;-86
2023/11/18 07:44:06;;;;;;;;;;;;;;;11.41;nan;102414.75;5039207;28;20023;-88
2023/11/18 07:46:31;;;;;;;;;;;;;;;11.40;nan;102431.06;5046651;28;19917;-87
2023/11/18 07:48:57;;;;;;;;;;;;;;;11.41;nan;102435.41;5044833;28;19949;-87
2023/11/18 07:51:23;;;;;;;;;;;;;;;11.36;nan;102435.22;5045171;28;19917;-88
2023/11/18 07:53:52;;;;;;;;;;;;;;;11.33;nan;102431.09;5042668;28;19917;-87
2023/11/18 07:56:17;;;;;;;;;;;;;;;11.29;nan;102434.41;5043574;28;20011;-87
2023/11/18 07:58:45;;;;;;;;;;;;;;;11.30;nan;102430.69;5047059;28;20411;-88
2023/11/18 08:01:16;;;;;;;;;;;;;;;11.33;nan;102438.31;5046469;28;19931;-87
2023/11/18 08:03:41;;;;;;;;;;;;;;;11.40;nan;102437.25;5045134;28;20393;-88
2023/11/18 08:06:07;;;;;;;;;;;;;;;11.43;nan;102444.88;5043250;28;19923;-88
2023/11/18 08:08:32;;;;;;;;;;;;;;;11.44;nan;102440.34;5040443;28;19945;-87
2023/11/18 08:10:58;;;;;;;;;;;;;;;11.50;nan;102442.19;5039791;28;20851;-88
2023/11/18 08:13:23;;;;;;;;;;;;;;;11.52;nan;102436.59;5040006;28;19940;-87
2023/11/18 08:15:49;;;;;;;;;;;;;;;11.57;nan;102439.47;5029936;28;19917;-88
2023/11/18 08:18:14;;;;;;;;;;;;;;;11.62;nan;102440.47;5040011;28;19927;-87
2023/11/18 08:20:39;;;;;;;;;;;;;;;11.60;nan;102439.84;5042446;28;19916;-88
2023/11/18 08:23:05;;;;;;;;;;;;;;;11.62;nan;102450.38;5040265;28;19952;-86
2023/11/18 08:25:33;;;;;;;;;;;;;;;11.61;nan;102454.09;5042058;28;20392;-88
2023/11/18 08:28:00;;;;;;;;;;;;;;;11.60;nan;102445.22;5039384;28;19912;-88
2023/11/18 08:30:25;;;;;;;;;;;;;;;11.59;nan;102448.13;5042862;28;19979;-88
2023/11/18 08:32:51;;;;;;;;;;;;;;;11.57;nan;102448.34;5027074;28;20582;-88
2023/11/18 08:35:16;;;;;;;;;;;;;;;11.53;nan;102449.81;5040947;28;19921;-87
2023/11/18 08:37:42;;;;;;;;;;;;;;;11.55;nan;102455.78;5041082;28;19921;-88
2023/11/18 08:40:21;;;;;;;;;;;;;;;11.54;nan;102456.81;5039994;28;20051;-88
2023/11/18 08:42:51;;;;;;;;;;;;;;;11.53;nan;102460.53;5041484;28;20003;-87
2023/11/18 08:45:16;;;;;;;;;;;;;;;11.57;nan;102456.41;5035787;28;19960;-87
2023/11/18 08:47:46;;;;;;;;;;;;;;;11.70;nan;102464.41;5042145;28;19960;-86
2023/11/18 08:50:13;;;;;;;;;;;;;;;11.74;nan;102462.09;5042354;28;19921;-87
2023/11/18 08:52:43;;;;;;;;;;;;;;;11.76;nan;102468.06;5041169;28;19921;-87
2023/11/18 08:55:17;;;;;;;;;;;;;;;11.81;nan;102470.97;5039592;28;19968;-86
2023/11/18 08:57:58;;;;;;;;;;;;;;;11.86;nan;102470.34;5045150;28;19928;-87
2023/11/18 09:03:17;;;;;;;;;;;;;;;11.96;nan;102481.44;5036836;28;19927;-87
2023/11/18 09:05:58;;;;;;;;;;;;;;;11.88;nan;102482.53;5034580;28;19925;-87
2023/11/18 09:08:24;;;;;;;;;;;;;;;11.89;nan;102481.47;5040402;28;19976;-87
2023/11/18 09:10:49;;;;;;;;;;;;;;;11.95;nan;102490.53;5038121;28;19916;-87
2023/11/18 09:13:14;;;;;;;;;;;;;;;11.95;nan;102490.53;5047513;28;19944;-87
2023/11/18 09:15:40;;;;;;;;;;;;;;;11.97;nan;102494.66;5044064;28;19958;-87
2023/11/18 09:18:09;;;;;;;;;;;;;;;12.04;nan;102492.78;5043908;28;20023;-88
2023/11/18 09:20:35;;;;;;;;;;;;;;;12.02;nan;102492.13;5046155;28;19916;-88
2023/11/18 09:23:01;;;;;;;;;;;;;;;12.02;nan;102491.31;5046762;28;20063;-88
2023/11/18 09:25:27;;;;;;;;;;;;;;;12.10;nan;102489.22;5044039;28;20406;-87
2023/11/18 09:27:53;;;;;;;;;;;;;;;12.20;nan;102486.03;5042169;28;19925;-88
2023/11/18 09:30:19;;;;;;;;;;;;;;;12.28;nan;102491.16;5046258;28;19917;-88
2023/11/18 09:32:47;;;;;;;;;;;;;;;12.37;nan;102497.91;5044379;28;19939;-88
2023/11/18 09:35:13;;;;;;;;;;;;;;;12.44;nan;102494.38;5046622;28;20535;-86
2023/11/18 09:37:38;;;;;;;;;;;;;;;12.49;nan;102498.06;5043264;28;19916;-88
2023/11/18 09:40:11;;;;;;;;;;;;;;;12.53;nan;102498.44;5046050;28;20015;-89
2023/11/18 09:42:38;;;;;;;;;;;;;;;12.55;nan;102496.34;5049263;28;19968;-88
2023/11/18 09:45:05;;;;;;;;;;;;;;;12.64;nan;102500.44;5044440;28;20388;-88
2023/11/18 09:47:34;;;;;;;;;;;;;;;12.61;nan;102504.38;5044017;28;19917;-88
2023/11/18 09:50:01;;;;;;;;;;;;;;;12.59;nan;102487.66;5048931;28;19923;-89
2023/11/18 09:52:31;;;;;;;;;;;;;;;12.60;nan;102493.84;5047439;28;19921;-89
2023/11/18 09:55:04;;;;;;;;;;;;;;;12.61;nan;102487.44;5045122;28;19925;-88
2023/11/18 09:57:57;;;;;;;;;;;;;;;12.64;nan;102500.44;5049369;28;20396;-88
2023/11/18 10:00:32;;;;;;;;;;;;;;;12.58;nan;102495.94;5028171;28;19917;-89
2023/11/18 10:03:00;;;;;;;;;;;;;;;12.60;nan;102504.59;5027260;28;19921;-88
2023/11/18 10:05:26;;;;;;;;;;;;;;;12.61;nan;102511.63;5040868;28;20439;-88
2023/11/18 10:07:52;;;;;;;;;;;;;;;12.65;nan;102505.59;5040558;28;19933;-89
2023/11/18 10:10:20;;;;;;;;;;;;;;;12.71;nan;102515.44;5043739;28;19998;-88
2023/11/18 10:12:51;;;;;;;;;;;;;;;12.71;nan;102506.56;5047259;28;19916;-88
2023/11/18 10:15:17;;;;;;;;;;;;;;;12.75;nan;102515.00;5047922;28;19932;-89
2023/11/18 10:20:41;;;;;;;;;;;;;;;12.82;nan;102513.09;4998513;28;20015;-87
2023/11/18 10:23:10;;;;;;;;;;;;;;;12.69;nan;102509.47;5043759;28;20443;-88
2023/11/18 10:26:04;;;;;;;;;;;;;;;12.63;nan;102512.22;5046201;28;20619;-89
2023/11/18 10:28:33;;;;;;;;;;;;;;;12.68;nan;102504.31;5058723;28;20011;-89
2023/11/18 10:31:05;;;;;;;;;;;;;;;12.81;nan;102498.00;5046259;28;20054;-87
2023/11/18 10:33:31;;;;;;;;;;;;;;;12.97;nan;102500.97;5042466;28;19917;-88
2023/11/18 10:35:57;;;;;;;;;;;;;;;13.12;nan;102502.50;5041626;28;19931;-87
2023/11/18 10:38:25;;;;;;;;;;;;;;;13.21;nan;102501.19;5045389;28;20004;-88
2023/11/18 10:40:57;;;;;;;;;;;;;;;13.30;nan;102500.69;5046788;28;20376;-88
2023/11/18 10:43:28;;;;;;;;;;;;;;;13.34;nan;102498.34;5039066;28;19925;-88
2023/11/18 10:46:13;;;;;;;;;;;;;;;13.33;nan;102499.41;5041127;28;19912;-88
2023/11/18 10:48:42;;;;;;;;;;;;;;;13.36;nan;102504.34;5043180;28;19968;-88
2023/11/18 10:51:12;;;;;;;;;;;;;;;13.35;nan;102508.06;5038911;28;19916;-89
2023/11/18 10:53:37;;;;;;;;;;;;;;;13.31;nan;102506.88;5042909;28;19921;-88
2023/11/18 10:56:16;;;;;;;;;;;;;;;13.33;nan;102512.88;5039212;28;20364;-89
2023/11/18 10:58:41;;;;;;;;;;;;;;;13.34;nan;102501.03;5045573;28;19924;-88
2023/11/18 11:01:11;;;;;;;;;;;;;;;13.38;nan;102510.31;5040500;28;19917;-88
2023/11/18 11:03:52;;;;;;;;;;;;;;;13.50;nan;102508.53;5044612;28;20472;-90
2023/11/18 11:06:18;;;;;;;;;;;;;;;13.52;nan;102502.91;5041112;28;20075;-90
2023/11/18 11:08:43;;;;;;;;;;;;;;;13.53;nan;102507.25;5041151;28;19921;-91
2023/11/18 11:11:16;;;;;;;;;;;;;;;13.54;nan;102495.44;5042427;28;19923;-91
2023/11/18 11:13:41;;;;;;;;;;;;;;;13.53;nan;102509.94;5044282;28;19916;-91
2023/11/18 11:16:10;;;;;;;;;;;;;;;13.52;nan;102502.91;5041111;28;19921;-90
2023/11/18 11:18:39;;;;;;;;;;;;;;;13.49;nan;102512.28;5037183;28;19945;-90
2023/11/18 11:21:05;;;;;;;;;;;;;;;13.47;nan;102502.78;5048760;28;19952;-90
2023/11/18 11:23:44;;;;;;;;;;;;;;;13.45;nan;102507.53;5043496;28;19921;-90
2023/11/18 11:26:13;;;;;;;;;;;;;;;13.39;nan;102501.19;5040944;28;19917;-90
2023/11/18 11:28:43;;;;;;;;;;;;;;;13.40;nan;102504.72;5041723;28;19927;-91
2023/11/18 11:31:15;;;;;;;;;;;;;;;13.39;nan;102503.06;5040421;28;19948;-90
2023/11/18 11:33:50;;;;;;;;;;;;;;;13.42;nan;102500.72;5042290;28;19917;-90
2023/11/18 11:36:22;;;;;;;;;;;;;;;13.51;nan;102504.78;5043962;28;19995;-91
2023/11/18 11:38:49;;;;;;;;;;;;;;;13.54;nan;102507.03;5035970;28;19924;-90
2023/11/18 11:41:26;;;;;;;;;;;;;;;13.50;nan;102505.03;5044184;28;19960;-90
2023/11/18 11:43:55;;;;;;;;;;;;;;;13.48;nan;102502.56;5039144;28;19920;-90
2023/11/18 11:46:23;;;;;;;;;;;;;;;13.46;nan;102504.63;5048259;28;20007;-90
2023/11/18 11:48:53;;;;;;;;;;;;;;;13.44;nan;102503.19;5046898;28;19944;-89
2023/11/18 11:51:44;;;;;;;;;;;;;;;13.41;nan;102501.78;5043562;28;19916;-90
2023/11/18 11:54:21;;;;;;;;;;;;;;;13.40;nan;102494.75;5037820;28;20036;-90
2023/11/18 11:56:47;;;;;;;;;;;;;;;13.47;nan;102495.53;5044065;28;19956;-90
2023/11/18 11:59:15;;;;;;;;;;;;;;;13.55;nan;102497.06;5040782;28;20031;-90
2023/11/18 12:01:46;;;;;;;;;;;;;;;13.63;nan;102487.84;5047946;28;19917;-90
2023/11/18 12:04:20;;;;;;;;;;;;;;;13.68;nan;102474.56;5048300;28;19957;-90
2023/11/18 12:06:47;;;;;;;;;;;;;;;13.73;nan;102472.00;5043802;28;19921;-91
2023/11/18 12:09:19;;;;;;;;;;;;;;;13.77;nan;102474.00;5037869;28;19921;-90
2023/11/18 12:11:46;;;;;;;;;;;;;;;13.80;nan;102470.03;5036087;28;19917;-91
2023/11/18 12:17:13;;;;;;;;;;;;;;;13.88;nan;102456.25;5047344;28;20020;-91
2023/11/18 12:19:48;;;;;;;;;;;;;;;13.93;nan;102451.00;5052392;28;19940;-91
2023/11/18 12:22:24;;;;;;;;;;;;;;;13.97;nan;102451.34;5042026;28;20300;-91
2023/11/18 12:24:58;;;;;;;;;;;;;;;13.95;nan;102446.19;5039031;28;19921;-91
2023/11/18 12:27:39;;;;;;;;;;;;;;;13.96;nan;102449.72;5044224;28;20011;-91
2023/11/18 12:30:29;;;;;;;;;;;;;;;14.17;nan;102447.31;5042370;28;19928;-91
2023/11/18 12:33:01;;;;;;;;;;;;;;;14.57;nan;102449.44;5038235;28;19999;-91
2023/11/18 12:35:29;;;;;;;;;;;;;;;14.77;nan;102441.00;5043565;28;19927;-90
2023/11/18 12:38:28;;;;;;;;;;;;;;;14.86;nan;102439.56;5042042;28;19924;-90
2023/11/18 12:40:59;;;;;;;;;;;;;;;14.85;nan;102435.22;5043091;28;19921;-91
2023/11/18 12:43:48;;;;;;;;;;;;;;;14.80;nan;102441.34;5048522;28;19928;-91
2023/11/18 12:46:17;;;;;;;;;;;;;;;14.76;nan;102440.16;5027462;28;20326;-91
2023/11/18 12:48:44;;;;;;;;;;;;;;;14.72;nan;102436.31;5049121;28;19920;-90
2023/11/18 12:51:19;;;;;;;;;;;;;;;14.69;nan;102439.44;5047956;28;19924;-91
2023/11/18 12:53:45;;;;;;;;;;;;;;;14.65;nan;102440.97;5050419;28;20080;-91
2023/11/18 12:56:13;;;;;;;;;;;;;;;14.62;nan;102446.84;5048114;28;19970;-91
2023/11/18 12:58:39;;;;;;;;;;;;;;;14.60;nan;102442.75;5050724;28;20280;-91
2023/11/18 13:01:04;;;;;;;;;;;;;;;14.57;nan;102441.34;5047428;28;19924;-91
2023/11/18 13:03:30;;;;;;;;;;;;;;;14.54;nan;102441.78;5038586;28;20373;-91
2023/11/18 13:05:56;;;;;;;;;;;;;;;14.52;nan;102441.19;5050404;28;19968;-91
2023/11/18 13:08:22;;;;;;;;;;;;;;;14.50;nan;102435.22;5047732;28;19920;-92